Etusivu
METAR-TAF:

METAR-TAF

Lentoasemat :

Bodøn lentoasema

Bodø, Norja

Leveyspiiri: 67-16N, Pituuspiiri: 014-22E, korkeus merenpinnasta: 1 m

Tämänhetkinen sää

Tämä raportti tehtiin 26 minuuttia sitten, kello 13.50 UTC
Tuuli 5 kn lännestä
Lämpötila 19°C
Kosteus 60%
Ilmanpaine 996 hPa
Näkyvyys 10 km tai enemmän
Muutamia pilviä 3500 ft:n korkeudessa
Hajonneita pilviä 20000 ft:n korkeudessa

METAR: ENBO 191350Z 28005KT 9999 FEW035 BKN200 19/11 Q0996 NOSIG

Aika: 16:16 (14:16 UTC)

Sääennuste

Ennuste voimassa 19. päivästä klo 12 UTC - 20. päivään klo 12 UTC
Tuuli 8 kn lännestä/lounaasta
Näkyvyys 10 km tai enemmän
Muutamia pilviä 4000 ft:n korkeudessa, Kasvava cumulus-pilvi.
Hajanaisia pilviä 10000 ft:n korkeudessa
Todennäköisyys 40% :
Ajoittain
19. päivästä klo 21 UTC - 20. päivään klo 12 UTC
Hajonneita pilviä 1400 ft:n korkeudessa, Kasvava cumulus-pilvi.
vesikuuroja

TAF: ENBO 1912/2012 24008KT 9999 FEW040TCU SCT100 PROB40 TEMPO 1921/2012 SHRA BKN014TCU

Säähavainnot ja -ennusteet yli 4000 lentoasemalta (METAR- ja TAF-raportit).

Käytössä olevat sääasemat on merkitty karttaan keltaisilla ja punaisilla pisteillä.

Aseta hiiri pisteen päälle nähdäksesi sääaseman nimen.

Klikkaa sitten nähdäksesi säähavainnot ja -ennusteet.

Kartan vaihtaminen: klikkaa mustalla rastilla varustettuja vihreitä pisteitä, niin voit zoomata sisään; viivalla varustettua vihreää pistettä, niin voit zoomata ulos tai vihreitä nuolia, niin pääset viereisille kartoille.


METAR-TAF: